createdAt,value
2023-05-13T00:00:40.283Z,500.00
2023-05-13T00:01:40.299Z,441.00
2023-05-13T00:02:40.379Z,408.00
2023-05-13T00:03:40.518Z,409.00
2023-05-13T00:04:40.394Z,411.00
2023-05-13T00:05:40.515Z,428.00
2023-05-13T00:06:40.775Z,452.00
2023-05-13T00:07:40.495Z,479.00
2023-05-13T00:08:40.539Z,501.00
2023-05-13T00:09:40.602Z,500.00
2023-05-13T00:10:40.642Z,500.00
2023-05-13T00:11:40.707Z,502.00
2023-05-13T00:12:40.738Z,500.00
2023-05-13T00:13:40.781Z,500.00
2023-05-13T00:14:40.848Z,500.00
2023-05-13T00:15:40.915Z,500.00
2023-05-13T00:16:41.093Z,503.00
2023-05-13T00:17:41.023Z,500.00
2023-05-13T00:18:41.056Z,501.00
2023-05-13T00:19:41.083Z,500.00
2023-05-13T00:20:41.128Z,503.00
2023-05-13T00:21:41.194Z,505.00
2023-05-13T00:22:41.282Z,505.00
2023-05-13T00:23:41.289Z,502.00
2023-05-13T00:24:41.339Z,507.00
2023-05-13T00:25:41.397Z,500.00
2023-05-13T00:26:41.435Z,501.00
2023-05-13T00:27:41.537Z,502.00
2023-05-13T00:28:41.552Z,506.00
2023-05-13T00:29:41.608Z,502.00
2023-05-13T00:30:41.649Z,500.00
2023-05-13T00:31:41.842Z,502.00
2023-05-13T00:32:41.781Z,505.00
2023-05-13T00:33:41.813Z,509.00
2023-05-13T00:34:41.829Z,511.00
2023-05-13T00:35:41.870Z,503.00
2023-05-13T00:36:41.938Z,501.00
2023-05-13T00:37:41.974Z,501.00
2023-05-13T00:38:42.028Z,504.00
2023-05-13T00:39:42.082Z,508.00
2023-05-13T00:40:42.132Z,503.00
2023-05-13T00:41:42.150Z,501.00
2023-05-13T00:42:42.219Z,502.00
2023-05-13T00:43:42.290Z,506.00
2023-05-13T00:44:42.302Z,500.00
2023-05-13T00:45:42.349Z,500.00
2023-05-13T00:46:42.377Z,500.00
2023-05-13T00:47:42.458Z,502.00
2023-05-13T00:48:42.481Z,504.00
2023-05-13T00:49:42.524Z,505.00
2023-05-13T00:50:42.566Z,504.00
2023-05-13T00:51:42.612Z,500.00
2023-05-13T00:52:42.664Z,508.00
2023-05-13T00:53:42.731Z,501.00
2023-05-13T00:54:42.777Z,505.00
2023-05-13T00:55:42.838Z,508.00
2023-05-13T00:56:42.879Z,507.00
2023-05-13T00:57:42.930Z,505.00
2023-05-13T00:58:42.973Z,503.00
2023-05-13T00:59:43.021Z,505.00
2023-05-13T01:00:43.040Z,504.00
2023-05-13T01:01:43.083Z,502.00
2023-05-13T01:02:43.245Z,504.00
2023-05-13T01:03:43.181Z,505.00
2023-05-13T01:04:43.229Z,504.00
2023-05-13T01:05:43.289Z,503.00
2023-05-13T01:06:43.335Z,504.00
2023-05-13T01:07:43.389Z,506.00
2023-05-13T01:08:43.443Z,503.00
2023-05-13T01:09:43.506Z,507.00
2023-05-13T01:10:43.546Z,510.00
2023-05-13T01:11:43.576Z,510.00
2023-05-13T01:12:43.625Z,505.00
2023-05-13T01:13:43.675Z,507.00
2023-05-13T01:14:43.729Z,508.00
2023-05-13T01:15:43.886Z,504.00
2023-05-13T01:16:43.923Z,508.00
2023-05-13T01:17:43.952Z,507.00
2023-05-13T01:18:43.988Z,507.00
2023-05-13T01:19:44.050Z,507.00
2023-05-13T01:20:44.054Z,508.00
2023-05-13T01:21:44.110Z,504.00
2023-05-13T01:22:44.175Z,512.00
2023-05-13T01:23:44.192Z,508.00
2023-05-13T01:24:44.290Z,508.00
2023-05-13T01:25:44.305Z,507.00
2023-05-13T01:26:44.369Z,507.00
2023-05-13T01:27:44.425Z,504.00
2023-05-13T01:28:44.474Z,504.00
2023-05-13T01:29:44.504Z,508.00
2023-05-13T01:30:44.542Z,510.00
2023-05-13T01:31:44.731Z,511.00
2023-05-13T01:32:44.673Z,505.00
2023-05-13T01:33:44.658Z,508.00
2023-05-13T01:34:44.719Z,507.00
2023-05-13T01:35:44.747Z,502.00
2023-05-13T01:36:44.792Z,506.00
2023-05-13T01:37:44.830Z,507.00
2023-05-13T01:38:44.866Z,507.00
2023-05-13T01:39:44.909Z,510.00
2023-05-13T01:40:44.947Z,507.00
2023-05-13T01:41:45.006Z,509.00
2023-05-13T01:42:45.025Z,509.00
2023-05-13T01:43:45.046Z,504.00
2023-05-13T01:44:45.081Z,508.00
2023-05-13T01:45:45.122Z,505.00
2023-05-13T01:46:45.212Z,508.00
2023-05-13T01:47:45.332Z,503.00
2023-05-13T01:48:45.294Z,510.00
2023-05-13T01:49:45.362Z,506.00
2023-05-13T01:50:45.427Z,509.00
2023-05-13T01:51:45.475Z,512.00
2023-05-13T01:52:45.541Z,514.00
2023-05-13T01:53:45.600Z,504.00
2023-05-13T01:54:45.672Z,510.00
2023-05-13T01:55:45.728Z,510.00
2023-05-13T01:56:45.785Z,508.00
2023-05-13T01:57:45.853Z,511.00
2023-05-13T01:58:45.903Z,506.00
2023-05-13T01:59:45.954Z,509.00
2023-05-13T02:00:46.000Z,508.00
2023-05-13T02:01:46.120Z,505.00
2023-05-13T02:02:46.128Z,510.00
2023-05-13T02:03:46.204Z,511.00
2023-05-13T02:04:46.150Z,513.00
2023-05-13T02:05:46.197Z,512.00
2023-05-13T02:06:46.222Z,510.00
2023-05-13T02:07:46.276Z,510.00
2023-05-13T02:08:46.333Z,515.00
2023-05-13T02:09:46.401Z,508.00
2023-05-13T02:10:46.446Z,512.00
2023-05-13T02:11:46.535Z,512.00
2023-05-13T02:12:46.572Z,514.00
2023-05-13T02:13:46.627Z,508.00
2023-05-13T02:14:46.698Z,510.00
2023-05-13T02:15:46.744Z,509.00
2023-05-13T02:16:46.864Z,509.00
2023-05-13T02:17:46.871Z,505.00
2023-05-13T02:18:46.938Z,514.00
2023-05-13T02:19:47.001Z,513.00
2023-05-13T02:20:47.032Z,508.00
2023-05-13T02:21:47.076Z,516.00
2023-05-13T02:22:47.127Z,509.00
2023-05-13T02:23:47.179Z,511.00
2023-05-13T02:24:47.240Z,511.00
2023-05-13T02:25:47.313Z,512.00
2023-05-13T02:26:47.338Z,511.00
2023-05-13T02:27:47.456Z,513.00
2023-05-13T02:28:47.469Z,509.00
2023-05-13T02:29:47.537Z,513.00
2023-05-13T02:30:47.578Z,515.00
2023-05-13T02:31:47.699Z,514.00
2023-05-13T02:32:47.758Z,520.00
2023-05-13T02:33:47.767Z,510.00
2023-05-13T02:34:47.810Z,515.00
2023-05-13T02:35:47.869Z,514.00
2023-05-13T02:36:47.906Z,512.00
2023-05-13T02:37:47.961Z,513.00
2023-05-13T02:38:48.030Z,517.00
2023-05-13T02:39:48.099Z,515.00
2023-05-13T02:40:48.153Z,512.00
2023-05-13T02:41:48.198Z,510.00
2023-05-13T02:42:48.263Z,512.00
2023-05-13T02:43:48.331Z,512.00
2023-05-13T02:44:48.403Z,516.00
2023-05-13T02:45:48.468Z,516.00
2023-05-13T02:46:48.505Z,516.00
2023-05-13T02:47:48.636Z,517.00
2023-05-13T02:48:48.636Z,516.00
2023-05-13T02:49:48.803Z,513.00
2023-05-13T02:50:48.727Z,518.00
2023-05-13T02:51:48.773Z,514.00
2023-05-13T02:52:48.814Z,523.00
2023-05-13T02:53:48.876Z,513.00
2023-05-13T02:54:49.116Z,517.00
2023-05-13T02:55:48.939Z,515.00
2023-05-13T02:56:48.986Z,516.00
2023-05-13T02:57:49.024Z,514.00
2023-05-13T02:58:49.062Z,523.00
2023-05-13T02:59:49.129Z,515.00
2023-05-13T03:00:49.186Z,518.00
2023-05-13T03:01:49.345Z,515.00
2023-05-13T03:02:49.359Z,520.00
2023-05-13T03:03:49.478Z,521.00
2023-05-13T03:04:49.430Z,520.00
2023-05-13T03:05:49.498Z,521.00
2023-05-13T03:06:49.544Z,514.00
2023-05-13T03:07:49.653Z,518.00
2023-05-13T03:08:49.685Z,523.00
2023-05-13T03:09:49.731Z,517.00
2023-05-13T03:10:49.768Z,521.00
2023-05-13T03:11:49.805Z,519.00
2023-05-13T03:12:49.851Z,520.00
2023-05-13T03:13:49.925Z,524.00
2023-05-13T03:14:49.958Z,520.00
2023-05-13T03:15:50.065Z,519.00
2023-05-13T03:16:50.068Z,522.00
2023-05-13T03:17:50.189Z,523.00
2023-05-13T03:18:50.277Z,521.00
2023-05-13T03:19:50.250Z,528.00
2023-05-13T03:20:50.313Z,521.00
2023-05-13T03:21:50.383Z,520.00
2023-05-13T03:22:50.433Z,519.00
2023-05-13T03:23:50.520Z,520.00
2023-05-13T03:24:50.547Z,523.00
2023-05-13T03:25:50.597Z,528.00
2023-05-13T03:26:50.650Z,519.00
2023-05-13T03:27:50.678Z,525.00
2023-05-13T03:28:50.731Z,524.00
2023-05-13T03:29:50.780Z,523.00
2023-05-13T03:30:50.875Z,523.00
2023-05-13T03:31:50.963Z,527.00
2023-05-13T03:32:51.042Z,527.00
2023-05-13T03:33:51.026Z,528.00
2023-05-13T03:34:51.078Z,525.00
2023-05-13T03:35:51.154Z,522.00
2023-05-13T03:36:51.194Z,521.00
2023-05-13T03:37:51.254Z,528.00
2023-05-13T03:38:51.312Z,530.00
2023-05-13T03:39:51.382Z,525.00
2023-05-13T03:40:51.383Z,530.00
2023-05-13T03:41:51.426Z,523.00
2023-05-13T03:42:51.457Z,526.00
2023-05-13T03:43:51.494Z,524.00
2023-05-13T03:44:51.557Z,523.00
2023-05-13T03:45:51.615Z,522.00
2023-05-13T03:46:51.711Z,530.00
2023-05-13T03:47:51.753Z,525.00
2023-05-13T03:48:51.781Z,530.00
2023-05-13T03:49:51.842Z,527.00
2023-05-13T03:50:51.872Z,528.00
2023-05-13T03:51:51.905Z,525.00
2023-05-13T03:52:51.940Z,528.00
2023-05-13T03:53:51.984Z,528.00
2023-05-13T03:54:52.021Z,529.00
2023-05-13T03:55:52.109Z,527.00
2023-05-13T03:56:52.141Z,528.00
2023-05-13T03:57:52.196Z,531.00
2023-05-13T03:58:52.260Z,529.00
2023-05-13T03:59:52.329Z,528.00
2023-05-13T04:00:52.393Z,529.00
2023-05-13T04:01:52.490Z,533.00
2023-05-13T04:02:52.734Z,532.00
2023-05-13T04:03:52.580Z,525.00
2023-05-13T04:04:52.765Z,529.00
2023-05-13T04:05:52.723Z,530.00
2023-05-13T04:06:52.764Z,526.00
2023-05-13T04:07:52.829Z,528.00
2023-05-13T04:08:52.896Z,527.00
2023-05-13T04:09:52.956Z,530.00
2023-05-13T04:10:53.008Z,535.00
2023-05-13T04:11:53.114Z,529.00
2023-05-13T04:12:53.186Z,535.00
2023-05-13T04:13:53.195Z,537.00
2023-05-13T04:14:53.256Z,536.00
2023-05-13T04:15:53.314Z,525.00
2023-05-13T04:16:53.407Z,532.00
2023-05-13T04:17:53.416Z,533.00
2023-05-13T04:18:53.484Z,535.00
2023-05-13T04:19:53.529Z,530.00
2023-05-13T04:20:53.562Z,534.00
2023-05-13T04:21:53.692Z,532.00
2023-05-13T04:22:53.684Z,536.00
2023-05-13T04:23:53.744Z,533.00
2023-05-13T04:24:53.820Z,536.00
2023-05-13T04:25:53.890Z,534.00
2023-05-13T04:26:53.923Z,538.00
2023-05-13T04:27:53.990Z,533.00
2023-05-13T04:28:54.019Z,535.00
2023-05-13T04:29:54.074Z,536.00
2023-05-13T04:30:54.136Z,532.00
2023-05-13T04:31:54.211Z,538.00
2023-05-13T04:32:54.304Z,537.00
2023-05-13T04:33:54.309Z,534.00
2023-05-13T04:34:54.354Z,530.00
2023-05-13T04:35:54.403Z,537.00
2023-05-13T04:36:54.460Z,538.00
2023-05-13T04:37:54.531Z,542.00
2023-05-13T04:38:54.579Z,536.00
2023-05-13T04:39:54.624Z,536.00
2023-05-13T04:40:54.685Z,532.00
2023-05-13T04:41:54.739Z,534.00
2023-05-13T04:42:55.206Z,531.00
2023-05-13T04:43:54.937Z,538.00
2023-05-13T04:44:54.886Z,537.00
2023-05-13T04:45:54.944Z,536.00
2023-05-13T04:46:54.978Z,535.00
2023-05-13T04:47:56.922Z,536.00
2023-05-13T04:48:55.040Z,537.00
2023-05-13T04:49:55.031Z,537.00
2023-05-13T04:50:55.027Z,537.00
2023-05-13T04:51:55.018Z,536.00
2023-05-13T04:52:55.055Z,537.00
2023-05-13T04:53:55.000Z,544.00
2023-05-13T04:54:54.991Z,536.00
2023-05-13T04:55:54.990Z,533.00
2023-05-13T04:56:54.985Z,538.00
2023-05-13T04:57:54.982Z,538.00
2023-05-13T04:58:54.968Z,542.00
2023-05-13T04:59:54.978Z,537.00
2023-05-13T05:00:54.950Z,537.00
2023-05-13T05:01:55.028Z,539.00
2023-05-13T05:02:54.950Z,537.00
2023-05-13T05:03:54.984Z,539.00
2023-05-13T05:04:54.928Z,535.00
2023-05-13T05:05:54.920Z,537.00
2023-05-13T05:06:54.912Z,540.00
2023-05-13T05:07:54.913Z,539.00
2023-05-13T05:08:55.892Z,542.00
2023-05-13T05:09:55.040Z,537.00
2023-05-13T05:10:55.082Z,533.00
2023-05-13T05:11:55.118Z,541.00
2023-05-13T05:12:55.172Z,540.00
2023-05-13T05:13:55.262Z,535.00
2023-05-13T05:14:55.304Z,535.00
2023-05-13T05:15:55.434Z,536.00
2023-05-13T05:16:55.431Z,540.00
2023-05-13T05:17:55.543Z,538.00
2023-05-13T05:18:55.697Z,539.00
2023-05-13T05:19:55.578Z,537.00
2023-05-13T05:20:55.637Z,539.00
2023-05-13T05:21:55.702Z,535.00
2023-05-13T05:22:55.760Z,538.00
2023-05-13T05:23:55.850Z,542.00
2023-05-13T05:24:55.883Z,538.00
2023-05-13T05:26:04.462Z,542.00
2023-05-13T05:26:55.944Z,543.00
2023-05-13T05:27:55.921Z,544.00
2023-05-13T05:28:55.926Z,545.00
2023-05-13T05:29:55.910Z,541.00
2023-05-13T05:30:55.907Z,542.00
2023-05-13T05:31:55.978Z,542.00
2023-05-13T05:32:55.921Z,540.00
2023-05-13T05:33:55.888Z,546.00
2023-05-13T05:34:55.881Z,546.00
2023-05-13T05:35:55.872Z,546.00
2023-05-13T05:36:55.876Z,540.00
2023-05-13T05:37:55.852Z,539.00
2023-05-13T05:38:55.854Z,544.00
2023-05-13T05:39:55.844Z,544.00
2023-05-13T05:40:55.837Z,538.00
2023-05-13T05:41:55.835Z,542.00
2023-05-13T05:42:55.822Z,541.00
2023-05-13T05:43:55.820Z,541.00
2023-05-13T05:44:55.823Z,539.00
2023-05-13T05:45:55.881Z,544.00
2023-05-13T05:46:55.815Z,542.00
2023-05-13T05:47:55.882Z,539.00
2023-05-13T05:48:55.914Z,538.00
2023-05-13T05:49:55.790Z,543.00
2023-05-13T05:50:55.767Z,543.00
2023-05-13T05:51:55.841Z,545.00
2023-05-13T05:52:55.864Z,539.00
2023-05-13T05:53:55.926Z,541.00
2023-05-13T05:54:55.990Z,540.00
2023-05-13T05:55:56.051Z,537.00
2023-05-13T05:56:56.111Z,538.00
2023-05-13T05:57:56.137Z,537.00
2023-05-13T05:58:56.195Z,541.00
2023-05-13T05:59:56.259Z,544.00
2023-05-13T06:00:56.322Z,545.00
2023-05-13T06:01:56.404Z,548.00
2023-05-13T06:02:56.511Z,549.00
2023-05-13T06:03:56.570Z,546.00
2023-05-13T06:04:56.536Z,543.00
2023-05-13T06:05:56.601Z,549.00
2023-05-13T06:06:56.713Z,555.00
2023-05-13T06:07:56.687Z,557.00
2023-05-13T06:08:56.739Z,549.00
2023-05-13T06:09:56.784Z,561.00
2023-05-13T06:10:56.839Z,567.00
2023-05-13T06:11:56.884Z,576.00
2023-05-13T06:12:56.907Z,573.00
2023-05-13T06:13:56.951Z,578.00
2023-05-13T06:14:56.967Z,575.00
2023-05-13T06:15:57.957Z,574.00
2023-05-13T06:16:57.023Z,577.00
2023-05-13T06:17:57.118Z,576.00
2023-05-13T06:18:57.099Z,585.00
2023-05-13T06:19:57.135Z,591.00
2023-05-13T06:20:57.140Z,593.00
2023-05-13T06:21:57.174Z,593.00
2023-05-13T06:22:57.204Z,594.00
2023-05-13T06:23:57.238Z,595.00
2023-05-13T06:24:57.259Z,605.00
2023-05-13T06:25:57.295Z,603.00
2023-05-13T06:26:57.313Z,602.00
2023-05-13T06:27:57.332Z,614.00
2023-05-13T06:28:57.360Z,615.00
2023-05-13T06:29:57.382Z,617.00
2023-05-13T06:30:57.479Z,618.00
2023-05-13T06:31:57.403Z,620.00
2023-05-13T06:33:01.479Z,621.00
2023-05-13T06:33:57.416Z,621.00
2023-05-13T06:34:57.393Z,623.00
2023-05-13T06:35:57.422Z,624.00
2023-05-13T06:36:57.374Z,627.00
2023-05-13T06:37:57.368Z,632.00
2023-05-13T06:38:57.364Z,632.00
2023-05-13T06:39:57.357Z,637.00
2023-05-13T06:40:57.345Z,642.00
2023-05-13T06:41:57.338Z,640.00
2023-05-13T06:42:57.321Z,640.00
2023-05-13T06:43:57.319Z,647.00
2023-05-13T06:44:57.324Z,646.00
2023-05-13T06:45:57.320Z,650.00
2023-05-13T06:46:57.333Z,651.00
2023-05-13T06:47:57.384Z,647.00
2023-05-13T06:48:57.289Z,651.00
2023-05-13T06:49:57.283Z,651.00
2023-05-13T06:50:57.285Z,654.00
2023-05-13T06:51:57.298Z,660.00
2023-05-13T06:52:57.274Z,660.00
2023-05-13T06:53:57.274Z,663.00
2023-05-13T06:54:57.261Z,663.00
2023-05-13T06:55:57.248Z,664.00
2023-05-13T06:56:57.258Z,664.00
2023-05-13T06:57:57.257Z,674.00
2023-05-13T06:58:57.231Z,682.00
2023-05-13T06:59:57.224Z,680.00
2023-05-13T07:00:57.283Z,680.00
2023-05-13T07:01:57.210Z,688.00
2023-05-13T07:02:57.247Z,689.00
2023-05-13T07:03:57.244Z,703.00
2023-05-13T07:04:57.186Z,707.00
2023-05-13T07:05:57.183Z,716.00
2023-05-13T07:06:57.181Z,712.00
2023-05-13T07:07:57.210Z,710.00
2023-05-13T07:08:57.161Z,729.00
2023-05-13T07:09:57.170Z,727.00
2023-05-13T07:10:57.145Z,732.00
2023-05-13T07:11:57.136Z,737.00
2023-05-13T07:12:57.170Z,722.00
2023-05-13T07:13:57.132Z,727.00
2023-05-13T07:14:57.123Z,738.00
2023-05-13T07:15:57.127Z,747.00
2023-05-13T07:16:57.124Z,760.00
2023-05-13T07:17:57.124Z,758.00
2023-05-13T07:18:57.134Z,765.00
2023-05-13T07:19:57.095Z,770.00
2023-05-13T07:20:57.101Z,772.00
2023-05-13T07:21:57.080Z,763.00
2023-05-13T07:22:57.083Z,779.00
2023-05-13T07:23:57.090Z,778.00
2023-05-13T07:24:57.087Z,787.00
2023-05-13T07:25:57.042Z,786.00
2023-05-13T07:26:57.038Z,789.00
2023-05-13T07:27:57.047Z,778.00
2023-05-13T07:28:57.023Z,794.00
2023-05-13T07:29:57.017Z,779.00
2023-05-13T07:30:57.043Z,779.00
2023-05-13T07:31:57.006Z,777.00
2023-05-13T07:32:57.028Z,776.00
2023-05-13T07:33:57.021Z,778.00
2023-05-13T07:34:57.010Z,783.00
2023-05-13T07:35:56.977Z,777.00
2023-05-13T07:36:56.975Z,786.00
2023-05-13T07:37:56.971Z,782.00
2023-05-13T07:38:56.965Z,788.00
2023-05-13T07:39:56.976Z,787.00
2023-05-13T07:40:56.950Z,801.00
2023-05-13T07:41:56.938Z,807.00
2023-05-13T07:42:56.962Z,813.00
2023-05-13T07:43:56.924Z,823.00
2023-05-13T07:44:56.924Z,822.00
2023-05-13T07:45:56.913Z,822.00
2023-05-13T07:46:56.945Z,811.00
2023-05-13T07:47:56.968Z,822.00
2023-05-13T07:48:56.894Z,837.00
2023-05-13T07:49:56.876Z,829.00
2023-05-13T07:50:56.869Z,828.00
2023-05-13T07:51:56.886Z,834.00
2023-05-13T07:52:56.869Z,818.00
2023-05-13T07:53:56.860Z,829.00
2023-05-13T07:54:56.843Z,822.00
2023-05-13T07:55:56.858Z,822.00
2023-05-13T07:56:56.830Z,806.00
2023-05-13T07:57:56.830Z,803.00
2023-05-13T07:58:56.821Z,792.00
2023-05-13T07:59:56.834Z,789.00
2023-05-13T08:00:56.803Z,775.00
2023-05-13T08:01:56.808Z,773.00
2023-05-13T08:02:56.894Z,769.00
2023-05-13T08:03:57.092Z,774.00
2023-05-13T08:04:56.793Z,763.00
2023-05-13T08:05:56.777Z,756.00
2023-05-13T08:06:56.779Z,760.00
2023-05-13T08:07:56.798Z,764.00
2023-05-13T08:08:56.801Z,759.00
2023-05-13T08:09:56.800Z,753.00
2023-05-13T08:10:56.802Z,762.00
2023-05-13T08:11:56.831Z,765.00
2023-05-13T08:12:56.798Z,775.00
2023-05-13T08:13:56.866Z,780.00
2023-05-13T08:14:56.916Z,782.00
2023-05-13T08:15:56.979Z,778.00
2023-05-13T08:16:56.946Z,788.00
2023-05-13T08:17:57.019Z,789.00
2023-05-13T08:18:57.023Z,770.00
2023-05-13T08:19:56.949Z,784.00
2023-05-13T08:20:56.953Z,794.00
2023-05-13T08:21:56.948Z,784.00
2023-05-13T08:22:56.937Z,795.00
2023-05-13T08:23:56.946Z,792.00
2023-05-13T08:24:56.942Z,802.00
2023-05-13T08:25:56.936Z,796.00
2023-05-13T08:26:56.961Z,797.00
2023-05-13T08:27:57.041Z,797.00
2023-05-13T08:28:57.013Z,792.00
2023-05-13T08:29:57.098Z,815.00
2023-05-13T08:30:57.084Z,801.00
2023-05-13T08:31:57.114Z,817.00
2023-05-13T08:32:57.106Z,819.00
2023-05-13T08:33:57.081Z,825.00
2023-05-13T08:34:57.105Z,824.00
2023-05-13T08:35:57.082Z,829.00
2023-05-13T08:36:57.089Z,813.00
2023-05-13T08:37:57.132Z,838.00
2023-05-13T08:38:57.096Z,819.00
2023-05-13T08:39:57.093Z,831.00
2023-05-13T08:40:57.130Z,833.00
2023-05-13T08:41:57.109Z,848.00
2023-05-13T08:42:57.097Z,849.00
2023-05-13T08:43:57.198Z,839.00
2023-05-13T08:44:57.147Z,847.00
2023-05-13T08:45:57.228Z,847.00
2023-05-13T08:46:57.265Z,858.00
2023-05-13T08:47:57.348Z,842.00
2023-05-13T08:48:57.380Z,858.00
2023-05-13T08:49:57.445Z,848.00
2023-05-13T08:50:57.557Z,861.00
2023-05-13T08:51:57.585Z,859.00
2023-05-13T08:52:57.632Z,869.00
2023-05-13T08:53:57.650Z,866.00
2023-05-13T08:54:57.670Z,863.00
2023-05-13T08:55:57.726Z,879.00
2023-05-13T08:56:57.791Z,878.00
2023-05-13T08:57:57.795Z,870.00
2023-05-13T08:58:57.805Z,899.00
2023-05-13T08:59:57.836Z,897.00
2023-05-13T09:00:57.908Z,900.00
2023-05-13T09:01:57.815Z,897.00
2023-05-13T09:02:57.888Z,894.00
2023-05-13T09:03:57.864Z,895.00
2023-05-13T09:04:57.879Z,892.00
2023-05-13T09:05:57.908Z,902.00
2023-05-13T09:06:57.925Z,912.00
2023-05-13T09:07:57.957Z,918.00
2023-05-13T09:08:58.014Z,913.00
2023-05-13T09:09:58.012Z,921.00
2023-05-13T09:10:58.062Z,920.00
2023-05-13T09:11:58.077Z,924.00
2023-05-13T09:12:58.096Z,917.00
2023-05-13T09:13:58.154Z,927.00
2023-05-13T09:14:58.207Z,930.00
2023-05-13T09:15:58.322Z,928.00
2023-05-13T09:16:58.262Z,927.00
2023-05-13T09:17:58.388Z,940.00
2023-05-13T09:18:58.442Z,957.00
2023-05-13T09:19:58.405Z,950.00
2023-05-13T09:20:58.406Z,945.00
2023-05-13T09:21:58.423Z,947.00
2023-05-13T09:22:58.494Z,950.00
2023-05-13T09:23:58.516Z,963.00
2023-05-13T09:24:58.572Z,952.00
2023-05-13T09:25:58.624Z,962.00
2023-05-13T09:26:58.680Z,965.00
2023-05-13T09:27:59.049Z,965.00
2023-05-13T09:28:58.755Z,970.00
2023-05-13T09:29:58.804Z,971.00
2023-05-13T09:30:58.896Z,994.00
2023-05-13T09:31:59.002Z,1009.00
2023-05-13T09:32:58.965Z,1033.00
2023-05-13T09:33:58.951Z,1023.00
2023-05-13T09:34:58.950Z,989.00
2023-05-13T09:35:58.959Z,983.00
2023-05-13T09:36:58.989Z,995.00
2023-05-13T09:37:58.987Z,991.00
2023-05-13T09:38:58.982Z,989.00
2023-05-13T09:39:58.986Z,982.00
2023-05-13T09:40:58.981Z,971.00
2023-05-13T09:41:58.978Z,975.00
2023-05-13T09:42:58.972Z,964.00
2023-05-13T09:43:58.984Z,960.00
2023-05-13T09:44:58.976Z,944.00
2023-05-13T09:45:58.979Z,933.00
2023-05-13T09:46:59.038Z,930.00
2023-05-13T09:47:59.070Z,915.00
2023-05-13T09:48:59.008Z,912.00
2023-05-13T09:49:59.015Z,910.00
2023-05-13T09:50:59.012Z,896.00
2023-05-13T09:51:59.022Z,886.00
2023-05-13T09:52:59.046Z,881.00
2023-05-13T09:53:59.067Z,880.00
2023-05-13T09:54:59.095Z,864.00
2023-05-13T09:55:59.118Z,853.00
2023-05-13T09:56:59.133Z,855.00
2023-05-13T09:57:59.120Z,845.00
2023-05-13T09:58:59.199Z,845.00
2023-05-13T09:59:59.137Z,836.00
2023-05-13T10:00:59.252Z,829.00
2023-05-13T10:01:59.140Z,819.00
2023-05-13T10:02:59.171Z,829.00
2023-05-13T10:03:59.225Z,826.00
2023-05-13T10:04:59.153Z,828.00
2023-05-13T10:06:01.287Z,816.00
2023-05-13T10:06:59.157Z,818.00
2023-05-13T10:07:59.140Z,822.00
2023-05-13T10:08:59.165Z,828.00
2023-05-13T10:09:59.129Z,824.00
2023-05-13T10:10:59.112Z,822.00
2023-05-13T10:11:59.103Z,832.00
2023-05-13T10:12:59.103Z,820.00
2023-05-13T10:13:59.096Z,832.00
2023-05-13T10:14:59.097Z,816.00
2023-05-13T10:15:59.079Z,819.00
2023-05-13T10:16:59.253Z,817.00
2023-05-13T10:17:59.135Z,821.00
2023-05-13T10:18:59.130Z,823.00
2023-05-13T10:19:59.084Z,813.00
2023-05-13T10:20:59.055Z,811.00
2023-05-13T10:21:59.058Z,804.00
2023-05-13T10:22:59.037Z,806.00
2023-05-13T10:23:59.033Z,807.00
2023-05-13T10:24:59.022Z,810.00
2023-05-13T10:25:59.029Z,809.00
2023-05-13T10:26:59.026Z,808.00
2023-05-13T10:27:59.011Z,801.00
2023-05-13T10:28:59.000Z,804.00
2023-05-13T10:30:00.527Z,808.00
2023-05-13T10:30:58.993Z,833.00
2023-05-13T10:31:59.040Z,817.00
2023-05-13T10:32:59.016Z,808.00
2023-05-13T10:33:58.964Z,806.00
2023-05-13T10:34:58.953Z,796.00
2023-05-13T10:35:58.975Z,805.00
2023-05-13T10:36:58.945Z,785.00
2023-05-13T10:37:58.924Z,779.00
2023-05-13T10:38:58.918Z,799.00
2023-05-13T10:39:58.920Z,785.00
2023-05-13T10:40:58.906Z,790.00
2023-05-13T10:41:58.904Z,793.00
2023-05-13T10:42:58.904Z,793.00
2023-05-13T10:43:58.912Z,792.00
2023-05-13T10:44:58.899Z,797.00
2023-05-13T10:45:58.906Z,788.00
2023-05-13T10:46:58.867Z,772.00
2023-05-13T10:47:58.996Z,787.00
2023-05-13T10:48:58.883Z,769.00
2023-05-13T10:49:58.846Z,775.00
2023-05-13T10:50:58.845Z,770.00
2023-05-13T10:51:58.883Z,777.00
2023-05-13T10:52:58.839Z,775.00
2023-05-13T10:53:58.825Z,780.00
2023-05-13T10:54:58.823Z,773.00
2023-05-13T10:55:58.816Z,777.00
2023-05-13T10:56:58.812Z,762.00
2023-05-13T10:57:58.811Z,760.00
2023-05-13T10:58:58.810Z,758.00
2023-05-13T10:59:58.794Z,747.00
2023-05-13T11:00:58.790Z,748.00
2023-05-13T11:01:58.872Z,768.00
2023-05-13T11:02:58.876Z,747.00
2023-05-13T11:03:59.099Z,745.00
2023-05-13T11:04:58.767Z,756.00
2023-05-13T11:05:58.780Z,755.00
2023-05-13T11:06:58.755Z,751.00
2023-05-13T11:07:58.766Z,736.00
2023-05-13T11:08:58.725Z,741.00
2023-05-13T11:09:58.727Z,747.00
2023-05-13T11:10:58.717Z,751.00
2023-05-13T11:11:58.714Z,739.00
2023-05-13T11:12:58.704Z,738.00
2023-05-13T11:13:58.705Z,748.00
2023-05-13T11:14:58.692Z,746.00
2023-05-13T11:15:58.786Z,737.00
2023-05-13T11:16:58.674Z,734.00
2023-05-13T11:17:58.684Z,731.00
2023-05-13T11:18:58.701Z,738.00
2023-05-13T11:19:58.664Z,727.00
2023-05-13T11:20:58.667Z,723.00
2023-05-13T11:21:58.655Z,723.00
2023-05-13T11:22:58.646Z,715.00
2023-05-13T11:23:58.660Z,713.00
2023-05-13T11:24:58.632Z,716.00
2023-05-13T11:25:58.629Z,715.00
2023-05-13T11:26:58.627Z,725.00
2023-05-13T11:27:58.625Z,719.00
2023-05-13T11:28:58.622Z,707.00
2023-05-13T11:29:58.594Z,715.00
2023-05-13T11:30:58.619Z,697.00
2023-05-13T11:32:00.602Z,705.00
2023-05-13T11:32:58.714Z,706.00
2023-05-13T11:33:58.570Z,709.00
2023-05-13T11:34:58.568Z,709.00
2023-05-13T11:35:58.556Z,703.00
2023-05-13T11:36:58.574Z,693.00
2023-05-13T11:38:00.130Z,693.00
2023-05-13T11:38:58.533Z,715.00
2023-05-13T11:39:58.550Z,726.00
2023-05-13T11:40:58.529Z,708.00
2023-05-13T11:41:58.517Z,696.00
2023-05-13T11:42:58.504Z,696.00
2023-05-13T11:43:58.501Z,693.00
2023-05-13T11:44:58.489Z,685.00
2023-05-13T11:45:58.502Z,683.00
2023-05-13T11:46:58.481Z,678.00
2023-05-13T11:47:58.477Z,681.00
2023-05-13T11:48:58.459Z,685.00
2023-05-13T11:49:58.453Z,687.00
2023-05-13T11:50:58.453Z,674.00
2023-05-13T11:51:58.444Z,664.00
2023-05-13T11:52:58.425Z,673.00
2023-05-13T11:53:58.426Z,667.00
2023-05-13T11:54:58.413Z,665.00
2023-05-13T11:55:58.441Z,663.00
2023-05-13T11:56:58.412Z,665.00
2023-05-13T11:57:58.390Z,669.00
2023-05-13T11:58:58.386Z,661.00
2023-05-13T11:59:58.373Z,673.00
2023-05-13T12:00:58.360Z,682.00
2023-05-13T12:01:58.384Z,669.00
2023-05-13T12:02:58.559Z,670.00
2023-05-13T12:03:58.346Z,665.00
2023-05-13T12:04:58.370Z,665.00
2023-05-13T12:05:58.332Z,663.00
2023-05-13T12:06:58.320Z,666.00
2023-05-13T12:07:58.489Z,671.00
2023-05-13T12:08:58.308Z,669.00
2023-05-13T12:09:58.331Z,663.00
2023-05-13T12:10:58.300Z,664.00
2023-05-13T12:11:58.319Z,664.00
2023-05-13T12:12:58.280Z,665.00
2023-05-13T12:13:58.276Z,665.00
2023-05-13T12:14:58.270Z,665.00
2023-05-13T12:15:58.309Z,663.00
2023-05-13T12:16:58.243Z,661.00
2023-05-13T12:17:58.291Z,663.00
2023-05-13T12:18:58.287Z,665.00
2023-05-13T12:19:58.228Z,662.00
2023-05-13T12:20:58.248Z,662.00
2023-05-13T12:21:58.215Z,661.00
2023-05-13T12:22:58.222Z,662.00
2023-05-13T12:23:58.201Z,662.00
2023-05-13T12:24:58.200Z,660.00
2023-05-13T12:25:58.200Z,661.00
2023-05-13T12:26:58.178Z,658.00
2023-05-13T12:27:58.201Z,658.00
2023-05-13T12:28:58.163Z,656.00